Time,TemperatureF,DewpointF,PressureIn,WindDirection,WindDirectionDegrees,WindSpeedMPH,WindSpeedGustMPH,Humidity,HourlyPrecipIn,Conditions,Clouds,dailyrainin,SoftwareType,DateUTC
2013-01-01 00:02:00,23.6,22.1,30.47,SE,146,0.0,0.0,94,0.00,,---,0.00,VWS V13.01,2013-01-01 08:02:00,
2013-01-01 00:32:00,23.3,21.8,30.47,SE,146,0.0,0.0,94,0.00,,---,0.00,VWS V13.01,2013-01-01 08:32:00,
2013-01-01 01:02:00,24.8,23.3,30.46,SE,146,0.0,2.0,94,0.00,,---,0.00,VWS V13.01,2013-01-01 09:02:00,
2013-01-01 01:32:00,28.7,27.5,30.42,East,93,4.0,4.0,95,0.00,,---,0.00,VWS V13.01,2013-01-01 09:32:00,
2013-01-01 02:02:00,30.9,26.6,30.41,ESE,103,3.0,5.0,84,0.00,,---,0.00,VWS V13.01,2013-01-01 10:02:00,
2013-01-01 02:32:00,31.0,25.3,30.40,East,100,2.0,5.0,79,0.00,,---,0.00,VWS V13.01,2013-01-01 10:32:00,
2013-01-01 03:02:00,30.7,23.7,30.40,ESE,114,0.0,6.0,75,0.00,,---,0.00,VWS V13.01,2013-01-01 11:02:00,
2013-01-01 03:32:00,30.9,25.2,30.42,ESE,111,1.0,5.0,79,0.00,,---,0.00,VWS V13.01,2013-01-01 11:32:00,
2013-01-01 04:02:00,30.6,24.9,30.40,East,97,3.0,5.0,79,0.00,,---,0.00,VWS V13.01,2013-01-01 12:02:00,
2013-01-01 04:32:00,31.0,24.6,30.43,East,93,1.0,5.0,77,0.00,,---,0.00,VWS V13.01,2013-01-01 12:32:00,
2013-01-01 05:02:00,31.5,25.1,30.42,East,94,2.0,5.0,77,0.00,,---,0.00,VWS V13.01,2013-01-01 13:02:00,
2013-01-01 05:32:00,31.5,24.5,30.43,South,176,0.0,5.0,75,0.00,,---,0.00,VWS V13.01,2013-01-01 13:32:00,
2013-01-01 06:02:00,31.8,24.8,30.44,East,100,3.0,5.0,75,0.00,,---,0.00,VWS V13.01,2013-01-01 14:02:00,
2013-01-01 06:32:00,31.9,24.6,30.45,East,86,1.0,5.0,74,0.00,,---,0.00,VWS V13.01,2013-01-01 14:32:00,
2013-01-01 07:02:00,32.1,24.8,30.46,SE,146,2.0,8.0,74,0.00,,---,0.00,VWS V13.01,2013-01-01 15:02:00,
2013-01-01 07:32:00,32.4,25.0,30.46,South,174,2.0,10.0,74,0.00,,---,0.00,VWS V13.01,2013-01-01 15:32:00,
2013-01-01 08:02:00,33.5,25.1,30.47,SW,217,1.0,9.0,71,0.00,,---,0.00,VWS V13.01,2013-01-01 16:02:00,
2013-01-01 08:32:00,35.8,25.9,30.48,WSW,256,5.0,10.0,67,0.00,,---,0.00,VWS V13.01,2013-01-01 16:32:00,
2013-01-01 09:02:00,36.0,25.8,30.49,SSE,158,0.0,14.0,66,0.00,,---,0.00,VWS V13.01,2013-01-01 17:02:00,
2013-01-01 09:32:00,37.3,26.6,30.49,East,83,6.0,13.0,65,0.00,,---,0.00,VWS V13.01,2013-01-01 17:32:00,
2013-01-01 10:02:00,37.2,26.9,30.49,East,98,2.0,14.0,66,0.01,,---,0.01,VWS V13.01,2013-01-01 18:02:00,
2013-01-01 10:32:00,36.2,26.7,30.50,ESE,119,1.0,13.0,68,0.01,,---,0.01,VWS V13.01,2013-01-01 18:32:00,
2013-01-01 11:02:00,36.8,27.2,30.48,ENE,69,4.0,16.0,68,0.01,,---,0.01,VWS V13.01,2013-01-01 19:02:00,
2013-01-01 11:32:00,37.0,26.0,30.45,SE,141,1.0,12.0,64,0.00,,---,0.01,VWS V13.01,2013-01-01 19:32:00,
2013-01-01 12:02:00,38.0,25.0,30.42,SW,216,6.0,15.0,59,0.00,,---,0.01,VWS V13.01,2013-01-01 20:02:00,
2013-01-01 12:32:00,38.6,25.1,30.39,SSE,165,10.0,14.0,58,0.00,,---,0.01,VWS V13.01,2013-01-01 20:32:00,
2013-01-01 13:02:00,38.3,24.0,30.41,South,181,1.0,17.0,56,0.00,,---,0.01,VWS V13.01,2013-01-01 21:02:00,
2013-01-01 13:32:00,38.2,23.0,30.37,SE,135,4.0,15.0,54,0.00,,---,0.01,VWS V13.01,2013-01-01 21:32:00,
2013-01-01 14:02:00,37.5,21.9,30.37,SSW,210,5.0,14.0,53,0.00,,---,0.01,VWS V13.01,2013-01-01 22:02:00,
2013-01-01 14:32:00,37.5,21.0,30.37,ENE,62,16.0,16.0,51,0.00,,---,0.01,VWS V13.01,2013-01-01 22:32:00,
2013-01-01 15:02:00,35.9,20.5,30.38,SSE,159,4.0,16.0,53,0.00,,---,0.01,VWS V13.01,2013-01-01 23:02:00,
2013-01-01 15:32:00,35.8,19.5,30.38,ENE,73,3.0,15.0,51,0.00,,---,0.01,VWS V13.01,2013-01-01 23:32:00,
2013-01-01 16:02:00,35.2,19.8,30.37,NNE,30,5.0,10.0,53,0.00,,---,0.01,VWS V13.01,2013-01-02 00:02:00,
2013-01-01 16:32:00,34.1,17.4,30.37,East,101,1.0,13.0,50,0.00,,---,0.01,VWS V13.01,2013-01-02 00:32:00,
2013-01-01 17:02:00,32.9,15.9,30.39,ENE,68,4.0,10.0,49,0.00,,---,0.01,VWS V13.01,2013-01-02 01:02:00,
2013-01-01 17:32:00,33.5,15.4,30.38,ESE,108,3.0,12.0,47,0.00,,---,0.01,VWS V13.01,2013-01-02 01:32:00,
2013-01-01 18:02:00,33.7,16.1,30.39,East,89,3.0,11.0,48,0.00,,---,0.01,VWS V13.01,2013-01-02 02:02:00,
2013-01-01 18:32:00,34.0,15.4,30.39,SE,136,2.0,13.0,46,0.00,,---,0.01,VWS V13.01,2013-01-02 02:32:00,
2013-01-01 19:02:00,34.1,15.0,30.41,ENE,60,2.0,13.0,45,0.00,,---,0.01,VWS V13.01,2013-01-02 03:02:00,
2013-01-01 19:32:00,33.5,14.9,30.40,East,96,6.0,10.0,46,0.00,,---,0.01,VWS V13.01,2013-01-02 03:32:00,
2013-01-01 20:02:00,33.4,14.4,30.41,ESE,114,5.0,11.0,45,0.00,,---,0.01,VWS V13.01,2013-01-02 04:02:00,
2013-01-01 20:32:00,33.2,14.2,30.40,ESE,103,4.0,11.0,45,0.00,,---,0.01,VWS V13.01,2013-01-02 04:32:00,
2013-01-01 21:02:00,34.3,15.2,30.39,ENE,75,6.0,15.0,45,0.00,,---,0.01,VWS V13.01,2013-01-02 05:02:00,
2013-01-01 21:32:00,33.5,14.9,30.39,SSE,161,11.0,15.0,46,0.00,,---,0.01,VWS V13.01,2013-01-02 05:32:00,
2013-01-01 22:02:00,33.2,14.7,30.40,East,98,13.0,13.0,46,0.00,,---,0.01,VWS V13.01,2013-01-02 06:02:00,
2013-01-01 22:32:00,33.2,14.7,30.39,ENE,77,9.0,13.0,46,0.00,,---,0.01,VWS V13.01,2013-01-02 06:32:00,
2013-01-01 23:02:00,33.1,14.6,30.39,East,80,5.0,11.0,46,0.00,,---,0.01,VWS V13.01,2013-01-02 07:02:00,
2013-01-01 23:32:00,32.7,14.7,30.39,ESE,102,3.0,11.0,47,0.00,,---,0.01,VWS V13.01,2013-01-02 07:32:00,